sensor_id;sensor_type;location;lat;lon;timestamp;pressure;altitude;pressure_sealevel;temperature;humidity
78343;BME280;67618;52.444;21.192;2023-03-20T00:01:10;100429.27;;;7.47;58.60
78343;BME280;67618;52.444;21.192;2023-03-20T00:06:26;100432.42;;;7.34;58.91
78343;BME280;67618;52.444;21.192;2023-03-20T00:11:31;100436.69;;;7.27;59.03
78343;BME280;67618;52.444;21.192;2023-03-20T00:16:39;100431.10;;;7.23;59.21
78343;BME280;67618;52.444;21.192;2023-03-20T00:21:42;100430.02;;;7.18;59.45
78343;BME280;67618;52.444;21.192;2023-03-20T00:26:44;100424.21;;;7.12;59.23
78343;BME280;67618;52.444;21.192;2023-03-20T00:31:47;100418.45;;;7.07;59.26
78343;BME280;67618;52.444;21.192;2023-03-20T00:36:49;100422.20;;;7.03;59.24
78343;BME280;67618;52.444;21.192;2023-03-20T00:41:56;100412.29;;;7.01;59.36
78343;BME280;67618;52.444;21.192;2023-03-20T00:47:03;100405.83;;;6.96;59.31
78343;BME280;67618;52.444;21.192;2023-03-20T00:52:08;100403.50;;;6.90;59.32
78343;BME280;67618;52.444;21.192;2023-03-20T00:57:28;100403.76;;;6.81;59.20
78343;BME280;67618;52.444;21.192;2023-03-20T01:02:31;100397.39;;;6.71;59.11
78343;BME280;67618;52.444;21.192;2023-03-20T01:07:33;100395.23;;;6.64;59.53
78343;BME280;67618;52.444;21.192;2023-03-20T01:12:34;100397.92;;;6.58;59.81
78343;BME280;67618;52.444;21.192;2023-03-20T01:17:36;100396.79;;;6.50;59.78
78343;BME280;67618;52.444;21.192;2023-03-20T01:22:37;100392.70;;;6.42;60.00
78343;BME280;67618;52.444;21.192;2023-03-20T01:27:39;100398.73;;;6.38;60.20
78343;BME280;67618;52.444;21.192;2023-03-20T01:32:40;100392.08;;;6.35;60.22
78343;BME280;67618;52.444;21.192;2023-03-20T01:37:44;100393.06;;;6.30;60.32
78343;BME280;67618;52.444;21.192;2023-03-20T01:42:46;100387.48;;;6.27;60.23
78343;BME280;67618;52.444;21.192;2023-03-20T01:47:47;100384.58;;;6.18;60.48
78343;BME280;67618;52.444;21.192;2023-03-20T01:52:55;100377.73;;;6.12;60.48
78343;BME280;67618;52.444;21.192;2023-03-20T01:58:02;100373.14;;;6.05;60.90
78343;BME280;67618;52.444;21.192;2023-03-20T02:03:07;100369.59;;;5.99;61.41
78343;BME280;67618;52.444;21.192;2023-03-20T02:08:15;100370.75;;;5.95;61.61
78343;BME280;67618;52.444;21.192;2023-03-20T02:13:18;100362.95;;;5.94;61.84
78343;BME280;67618;52.444;21.192;2023-03-20T02:18:19;100362.68;;;5.88;61.82
78343;BME280;67618;52.444;21.192;2023-03-20T02:45:47;100361.41;;;5.75;61.33
78343;BME280;67618;52.444;21.192;2023-03-20T02:50:59;100360.25;;;5.68;61.52
78343;BME280;67618;52.444;21.192;2023-03-20T03:01:25;100354.58;;;5.59;61.66
78343;BME280;67618;52.444;21.192;2023-03-20T03:06:30;100352.73;;;5.52;61.68
78343;BME280;67618;52.444;21.192;2023-03-20T03:11:35;100355.75;;;5.45;61.68
78343;BME280;67618;52.444;21.192;2023-03-20T03:16:39;100357.71;;;5.38;61.86
78343;BME280;67618;52.444;21.192;2023-03-20T03:21:40;100352.23;;;5.31;61.81
78343;BME280;67618;52.444;21.192;2023-03-20T03:26:42;100348.69;;;5.25;62.02
78343;BME280;67618;52.444;21.192;2023-03-20T03:31:44;100349.33;;;5.23;61.74
78343;BME280;67618;52.444;21.192;2023-03-20T03:36:54;100348.81;;;5.23;61.97
78343;BME280;67618;52.444;21.192;2023-03-20T03:42:18;100345.14;;;5.21;62.18
78343;BME280;67618;52.444;21.192;2023-03-20T03:47:38;100347.86;;;5.18;62.34
78343;BME280;67618;52.444;21.192;2023-03-20T03:52:44;100339.13;;;5.13;62.29
78343;BME280;67618;52.444;21.192;2023-03-20T03:57:56;100337.32;;;5.08;62.68
78343;BME280;67618;52.444;21.192;2023-03-20T04:02:59;100329.27;;;5.03;62.85
78343;BME280;67618;52.444;21.192;2023-03-20T04:08:01;100331.60;;;4.98;63.03
78343;BME280;67618;52.444;21.192;2023-03-20T04:13:03;100325.63;;;4.93;62.83
78343;BME280;67618;52.444;21.192;2023-03-20T04:18:05;100323.46;;;4.88;63.28
78343;BME280;67618;52.444;21.192;2023-03-20T04:23:07;100328.22;;;4.83;63.44
78343;BME280;67618;52.444;21.192;2023-03-20T04:28:08;100332.31;;;4.80;63.53
78343;BME280;67618;52.444;21.192;2023-03-20T04:33:11;100332.48;;;4.80;63.74
78343;BME280;67618;52.444;21.192;2023-03-20T04:38:13;100335.45;;;4.81;63.88
78343;BME280;67618;52.444;21.192;2023-03-20T04:43:15;100332.63;;;4.78;63.69
78343;BME280;67618;52.444;21.192;2023-03-20T04:48:16;100335.42;;;4.80;63.94
78343;BME280;67618;52.444;21.192;2023-03-20T04:53:18;100337.30;;;4.78;63.97
78343;BME280;67618;52.444;21.192;2023-03-20T04:58:20;100343.14;;;4.76;64.24
78343;BME280;67618;52.444;21.192;2023-03-20T05:03:22;100342.60;;;4.75;64.30
78343;BME280;67618;52.444;21.192;2023-03-20T05:08:23;100334.34;;;4.77;64.40
78343;BME280;67618;52.444;21.192;2023-03-20T05:13:26;100337.81;;;4.88;64.74
78343;BME280;67618;52.444;21.192;2023-03-20T05:18:27;100331.89;;;4.95;64.86
78343;BME280;67618;52.444;21.192;2023-03-20T05:23:29;100334.13;;;4.94;65.40
78343;BME280;67618;52.444;21.192;2023-03-20T05:28:30;100341.46;;;4.97;65.44
78343;BME280;67618;52.444;21.192;2023-03-20T05:33:32;100340.47;;;5.01;65.59
78343;BME280;67618;52.444;21.192;2023-03-20T05:38:33;100344.71;;;5.07;65.48
78343;BME280;67618;52.444;21.192;2023-03-20T05:43:35;100344.40;;;5.18;65.70
78343;BME280;67618;52.444;21.192;2023-03-20T05:48:36;100346.66;;;5.28;65.66
78343;BME280;67618;52.444;21.192;2023-03-20T05:53:37;100342.64;;;5.37;64.98
78343;BME280;67618;52.444;21.192;2023-03-20T05:58:39;100343.11;;;5.45;65.18
78343;BME280;67618;52.444;21.192;2023-03-20T06:03:42;100345.63;;;5.51;65.17
78343;BME280;67618;52.444;21.192;2023-03-20T06:08:44;100344.21;;;5.48;65.42
78343;BME280;67618;52.444;21.192;2023-03-20T06:13:45;100340.20;;;5.47;65.60
78343;BME280;67618;52.444;21.192;2023-03-20T06:18:47;100343.54;;;5.49;65.21
78343;BME280;67618;52.444;21.192;2023-03-20T06:23:49;100340.17;;;5.57;66.35
78343;BME280;67618;52.444;21.192;2023-03-20T06:28:51;100346.89;;;5.65;66.67
78343;BME280;67618;52.444;21.192;2023-03-20T06:33:52;100344.82;;;5.76;67.30
78343;BME280;67618;52.444;21.192;2023-03-20T06:38:55;100348.95;;;5.97;67.24
78343;BME280;67618;52.444;21.192;2023-03-20T06:43:56;100347.68;;;6.19;67.29
78343;BME280;67618;52.444;21.192;2023-03-20T06:48:58;100354.55;;;6.42;67.20
78343;BME280;67618;52.444;21.192;2023-03-20T06:54:00;100359.02;;;6.66;66.61
78343;BME280;67618;52.444;21.192;2023-03-20T06:59:01;100365.34;;;6.90;65.33
78343;BME280;67618;52.444;21.192;2023-03-20T07:04:03;100362.61;;;7.12;65.30
78343;BME280;67618;52.444;21.192;2023-03-20T07:09:04;100362.27;;;7.31;64.91
78343;BME280;67618;52.444;21.192;2023-03-20T07:14:06;100360.67;;;7.48;63.79
78343;BME280;67618;52.444;21.192;2023-03-20T07:19:07;100366.00;;;7.66;64.12
78343;BME280;67618;52.444;21.192;2023-03-20T07:24:09;100364.09;;;7.88;63.86
78343;BME280;67618;52.444;21.192;2023-03-20T07:29:10;100363.51;;;8.09;63.57
78343;BME280;67618;52.444;21.192;2023-03-20T07:34:12;100360.33;;;8.28;63.04
78343;BME280;67618;52.444;21.192;2023-03-20T07:39:13;100359.02;;;8.46;62.60
78343;BME280;67618;52.444;21.192;2023-03-20T07:44:15;100357.70;;;8.66;62.24
78343;BME280;67618;52.444;21.192;2023-03-20T07:49:19;100355.84;;;8.85;62.35
78343;BME280;67618;52.444;21.192;2023-03-20T07:54:21;100357.45;;;9.07;61.89
78343;BME280;67618;52.444;21.192;2023-03-20T07:59:23;100352.60;;;9.31;61.80
78343;BME280;67618;52.444;21.192;2023-03-20T08:04:24;100356.09;;;9.55;60.82
78343;BME280;67618;52.444;21.192;2023-03-20T08:09:26;100357.13;;;9.77;60.26
78343;BME280;67618;52.444;21.192;2023-03-20T08:14:27;100354.81;;;10.00;58.21
78343;BME280;67618;52.444;21.192;2023-03-20T08:19:29;100355.30;;;10.24;56.65
78343;BME280;67618;52.444;21.192;2023-03-20T08:24:30;100354.86;;;10.48;56.58
78343;BME280;67618;52.444;21.192;2023-03-20T08:29:32;100352.98;;;10.74;56.13
78343;BME280;67618;52.444;21.192;2023-03-20T08:34:33;100350.58;;;10.98;55.01
78343;BME280;67618;52.444;21.192;2023-03-20T08:39:35;100345.69;;;11.24;53.74
78343;BME280;67618;52.444;21.192;2023-03-20T08:44:36;100351.94;;;11.50;53.04
78343;BME280;67618;52.444;21.192;2023-03-20T08:49:37;100347.89;;;11.77;52.68
78343;BME280;67618;52.444;21.192;2023-03-20T08:54:39;100348.38;;;11.98;52.08
78343;BME280;67618;52.444;21.192;2023-03-20T08:59:41;100347.44;;;12.20;52.22
78343;BME280;67618;52.444;21.192;2023-03-20T09:04:42;100339.08;;;12.46;51.39
78343;BME280;67618;52.444;21.192;2023-03-20T09:09:44;100338.40;;;12.71;49.65
78343;BME280;67618;52.444;21.192;2023-03-20T09:14:46;100337.23;;;12.91;48.83
78343;BME280;67618;52.444;21.192;2023-03-20T09:19:47;100337.52;;;13.10;49.18
78343;BME280;67618;52.444;21.192;2023-03-20T09:24:49;100339.26;;;13.33;48.50
78343;BME280;67618;52.444;21.192;2023-03-20T09:29:50;100334.39;;;13.52;47.32
78343;BME280;67618;52.444;21.192;2023-03-20T09:34:52;100332.64;;;13.71;46.99
78343;BME280;67618;52.444;21.192;2023-03-20T09:39:53;100330.59;;;13.89;46.22
78343;BME280;67618;52.444;21.192;2023-03-20T09:50:17;100324.73;;;14.19;45.51
78343;BME280;67618;52.444;21.192;2023-03-20T09:55:32;100322.21;;;14.33;45.55
78343;BME280;67618;52.444;21.192;2023-03-20T10:00:34;100321.55;;;14.48;45.73
78343;BME280;67618;52.444;21.192;2023-03-20T10:05:53;100320.77;;;14.60;44.25
78343;BME280;67618;52.444;21.192;2023-03-20T10:11:05;100322.86;;;14.68;44.11
78343;BME280;67618;52.444;21.192;2023-03-20T10:16:34;100318.73;;;14.73;43.75
78343;BME280;67618;52.444;21.192;2023-03-20T10:21:48;100326.65;;;14.80;43.33
78343;BME280;67618;52.444;21.192;2023-03-20T10:26:52;100327.60;;;14.84;43.66
78343;BME280;67618;52.444;21.192;2023-03-20T10:42:27;100323.54;;;15.01;44.04
78343;BME280;67618;52.444;21.192;2023-03-20T10:47:35;100315.82;;;15.00;43.84
78343;BME280;67618;52.444;21.192;2023-03-20T10:52:40;100316.57;;;14.98;43.18
78343;BME280;67618;52.444;21.192;2023-03-20T10:57:46;100313.89;;;15.00;44.01
78343;BME280;67618;52.444;21.192;2023-03-20T11:02:49;100310.48;;;15.03;44.25
78343;BME280;67618;52.444;21.192;2023-03-20T11:08:00;100311.87;;;15.11;44.13
78343;BME280;67618;52.444;21.192;2023-03-20T11:13:21;100309.45;;;15.24;44.09
78343;BME280;67618;52.444;21.192;2023-03-20T11:18:25;100306.03;;;15.34;43.61
78343;BME280;67618;52.444;21.192;2023-03-20T11:23:28;100300.95;;;15.40;42.16
78343;BME280;67618;52.444;21.192;2023-03-20T11:33:37;100295.83;;;15.49;42.01
78343;BME280;67618;52.444;21.192;2023-03-20T11:38:43;100288.58;;;15.50;42.14
78343;BME280;67618;52.444;21.192;2023-03-20T11:43:45;100285.73;;;15.45;42.53
78343;BME280;67618;52.444;21.192;2023-03-20T11:48:46;100281.53;;;15.35;43.29
78343;BME280;67618;52.444;21.192;2023-03-20T12:04:12;100272.20;;;15.37;45.27
78343;BME280;67618;52.444;21.192;2023-03-20T12:14:54;100264.25;;;15.59;44.48
78343;BME280;67618;52.444;21.192;2023-03-20T12:20:02;100256.55;;;15.77;43.21
78343;BME280;67618;52.444;21.192;2023-03-20T12:31:00;100254.21;;;16.04;41.17
78343;BME280;67618;52.444;21.192;2023-03-20T12:36:11;100251.59;;;16.03;41.48
78343;BME280;67618;52.444;21.192;2023-03-20T12:57:31;100257.58;;;16.21;42.50
78343;BME280;67618;52.444;21.192;2023-03-20T13:03:04;100259.23;;;16.13;42.71
78343;BME280;67618;52.444;21.192;2023-03-20T13:13:48;100254.70;;;16.05;43.92
78343;BME280;67618;52.444;21.192;2023-03-20T13:19:19;100251.52;;;15.81;44.48
78343;BME280;67618;52.444;21.192;2023-03-20T13:39:46;100239.77;;;15.47;46.74
78343;BME280;67618;52.444;21.192;2023-03-20T13:44:50;100235.61;;;15.52;47.01
78343;BME280;67618;52.444;21.192;2023-03-20T13:50:11;100230.16;;;15.58;47.17
78343;BME280;67618;52.444;21.192;2023-03-20T13:55:37;100228.55;;;15.59;47.29
78343;BME280;67618;52.444;21.192;2023-03-20T14:00:50;100226.87;;;15.62;47.71
78343;BME280;67618;52.444;21.192;2023-03-20T14:05:56;100223.50;;;15.64;48.79
78343;BME280;67618;52.444;21.192;2023-03-20T14:16:32;100228.77;;;15.36;51.30
78343;BME280;67618;52.444;21.192;2023-03-20T14:21:34;100232.30;;;15.36;52.15
78343;BME280;67618;52.444;21.192;2023-03-20T14:26:37;100235.08;;;15.30;52.95
78343;BME280;67618;52.444;21.192;2023-03-20T14:31:42;100235.16;;;15.20;53.16
78343;BME280;67618;52.444;21.192;2023-03-20T14:57:45;100248.70;;;14.62;58.28
78343;BME280;67618;52.444;21.192;2023-03-20T15:03:07;100250.88;;;14.43;59.52
78343;BME280;67618;52.444;21.192;2023-03-20T15:08:20;100257.30;;;14.21;60.58
78343;BME280;67618;52.444;21.192;2023-03-20T15:13:24;100257.50;;;14.02;61.35
78343;BME280;67618;52.444;21.192;2023-03-20T15:18:27;100256.27;;;13.85;62.14
78343;BME280;67618;52.444;21.192;2023-03-20T15:23:28;100256.48;;;13.65;63.30
78343;BME280;67618;52.444;21.192;2023-03-20T15:28:30;100259.88;;;13.41;64.54
78343;BME280;67618;52.444;21.192;2023-03-20T15:33:34;100261.34;;;13.28;64.75
78343;BME280;67618;52.444;21.192;2023-03-20T15:38:37;100262.27;;;13.25;65.46
78343;BME280;67618;52.444;21.192;2023-03-20T15:43:39;100262.21;;;13.19;66.05
78343;BME280;67618;52.444;21.192;2023-03-20T15:48:46;100266.41;;;13.08;66.79
78343;BME280;67618;52.444;21.192;2023-03-20T15:53:47;100266.79;;;12.93;67.07
78343;BME280;67618;52.444;21.192;2023-03-20T15:58:50;100269.91;;;12.84;67.21
78343;BME280;67618;52.444;21.192;2023-03-20T16:03:56;100270.14;;;12.80;67.40
78343;BME280;67618;52.444;21.192;2023-03-20T16:09:06;100272.52;;;12.73;67.84
78343;BME280;67618;52.444;21.192;2023-03-20T16:14:12;100275.70;;;12.60;68.17
78343;BME280;67618;52.444;21.192;2023-03-20T16:19:15;100271.90;;;12.56;68.53
78343;BME280;67618;52.444;21.192;2023-03-20T16:24:20;100268.30;;;12.51;68.69
78343;BME280;67618;52.444;21.192;2023-03-20T16:29:24;100263.89;;;12.53;68.41
78343;BME280;67618;52.444;21.192;2023-03-20T16:34:33;100257.51;;;12.59;68.72
78343;BME280;67618;52.444;21.192;2023-03-20T16:39:35;100256.54;;;12.54;69.08
78343;BME280;67618;52.444;21.192;2023-03-20T16:44:39;100264.52;;;12.45;69.52
78343;BME280;67618;52.444;21.192;2023-03-20T16:54:55;100268.96;;;12.40;69.47
78343;BME280;67618;52.444;21.192;2023-03-20T17:00:41;100262.36;;;12.36;69.73
78343;BME280;67618;52.444;21.192;2023-03-20T17:05:40;100268.28;;;12.39;69.54
78343;BME280;67618;52.444;21.192;2023-03-20T17:10:48;100274.14;;;12.33;70.22
78343;BME280;67618;52.444;21.192;2023-03-20T17:15:51;100274.25;;;12.23;70.69
78343;BME280;67618;52.444;21.192;2023-03-20T17:20:52;100270.48;;;12.17;71.00
78343;BME280;67618;52.444;21.192;2023-03-20T17:25:54;100273.60;;;12.05;71.55
78343;BME280;67618;52.444;21.192;2023-03-20T17:30:55;100273.61;;;11.90;71.76
78343;BME280;67618;52.444;21.192;2023-03-20T17:35:58;100277.90;;;11.81;72.21
78343;BME280;67618;52.444;21.192;2023-03-20T17:40:59;100277.31;;;11.70;72.65
78343;BME280;67618;52.444;21.192;2023-03-20T17:46:01;100273.23;;;11.56;73.20
78343;BME280;67618;52.444;21.192;2023-03-20T17:51:02;100273.73;;;11.41;73.35
78343;BME280;67618;52.444;21.192;2023-03-20T17:56:10;100274.83;;;11.35;73.32
78343;BME280;67618;52.444;21.192;2023-03-20T18:01:12;100279.64;;;11.25;73.80
78343;BME280;67618;52.444;21.192;2023-03-20T18:06:20;100279.38;;;11.14;73.91
78343;BME280;67618;52.444;21.192;2023-03-20T18:11:24;100274.69;;;11.11;74.00
78343;BME280;67618;52.444;21.192;2023-03-20T18:16:26;100279.63;;;11.04;74.65
78343;BME280;67618;52.444;21.192;2023-03-20T18:21:27;100278.28;;;10.98;75.08
78343;BME280;67618;52.444;21.192;2023-03-20T18:26:29;100277.11;;;10.91;74.93
78343;BME280;67618;52.444;21.192;2023-03-20T18:31:30;100277.14;;;10.87;75.02
78343;BME280;67618;52.444;21.192;2023-03-20T18:36:32;100276.84;;;10.78;75.53
78343;BME280;67618;52.444;21.192;2023-03-20T18:41:33;100278.66;;;10.68;75.86
78343;BME280;67618;52.444;21.192;2023-03-20T18:46:35;100277.65;;;10.61;76.27
78343;BME280;67618;52.444;21.192;2023-03-20T18:51:36;100281.70;;;10.57;76.06
78343;BME280;67618;52.444;21.192;2023-03-20T18:56:38;100284.70;;;10.52;76.31
78343;BME280;67618;52.444;21.192;2023-03-20T19:01:39;100278.28;;;10.44;76.67
78343;BME280;67618;52.444;21.192;2023-03-20T19:06:41;100280.58;;;10.39;76.47
78343;BME280;67618;52.444;21.192;2023-03-20T19:11:42;100283.58;;;10.31;76.83
78343;BME280;67618;52.444;21.192;2023-03-20T19:16:44;100285.90;;;10.22;77.17
78343;BME280;67618;52.444;21.192;2023-03-20T19:21:46;100282.41;;;10.16;77.06
78343;BME280;67618;52.444;21.192;2023-03-20T19:26:47;100274.24;;;10.11;77.18
78343;BME280;67618;52.444;21.192;2023-03-20T19:31:49;100274.75;;;10.08;77.48
78343;BME280;67618;52.444;21.192;2023-03-20T19:36:51;100274.92;;;10.03;77.67
78343;BME280;67618;52.444;21.192;2023-03-20T19:41:52;100276.52;;;9.97;77.43
78343;BME280;67618;52.444;21.192;2023-03-20T19:46:53;100271.64;;;9.98;77.49
78343;BME280;67618;52.444;21.192;2023-03-20T19:51:56;100271.12;;;9.98;77.87
78343;BME280;67618;52.444;21.192;2023-03-20T19:56:57;100266.58;;;10.00;77.77
78343;BME280;67618;52.444;21.192;2023-03-20T20:01:59;100267.27;;;10.02;78.14
78343;BME280;67618;52.444;21.192;2023-03-20T20:07:00;100275.64;;;10.03;78.09
78343;BME280;67618;52.444;21.192;2023-03-20T20:12:02;100275.81;;;10.07;78.21
78343;BME280;67618;52.444;21.192;2023-03-20T20:17:04;100271.80;;;10.13;78.10
78343;BME280;67618;52.444;21.192;2023-03-20T20:22:06;100274.58;;;10.15;78.38
78343;BME280;67618;52.444;21.192;2023-03-20T20:27:08;100285.58;;;10.14;78.61
78343;BME280;67618;52.444;21.192;2023-03-20T20:32:11;100293.23;;;10.15;78.69
78343;BME280;67618;52.444;21.192;2023-03-20T20:37:13;100298.29;;;10.19;79.36
78343;BME280;67618;52.444;21.192;2023-03-20T20:42:14;100293.36;;;10.25;79.11
78343;BME280;67618;52.444;21.192;2023-03-20T20:47:17;100293.00;;;10.29;79.30
78343;BME280;67618;52.444;21.192;2023-03-20T20:52:18;100296.63;;;10.39;79.00
78343;BME280;67618;52.444;21.192;2023-03-20T20:57:20;100295.54;;;10.45;79.04
78343;BME280;67618;52.444;21.192;2023-03-20T21:02:21;100294.80;;;10.54;78.50
78343;BME280;67618;52.444;21.192;2023-03-20T21:07:23;100292.50;;;10.61;78.44
78343;BME280;67618;52.444;21.192;2023-03-20T21:12:25;100288.10;;;10.66;78.23
78343;BME280;67618;52.444;21.192;2023-03-20T21:17:27;100290.56;;;10.64;78.13
78343;BME280;67618;52.444;21.192;2023-03-20T21:22:28;100294.41;;;10.62;78.10
78343;BME280;67618;52.444;21.192;2023-03-20T21:27:30;100295.13;;;10.58;78.03
78343;BME280;67618;52.444;21.192;2023-03-20T21:32:32;100291.30;;;10.57;78.06
78343;BME280;67618;52.444;21.192;2023-03-20T21:37:36;100286.61;;;10.53;78.40
78343;BME280;67618;52.444;21.192;2023-03-20T21:42:38;100281.20;;;10.55;78.30
78343;BME280;67618;52.444;21.192;2023-03-20T21:47:39;100279.45;;;10.52;78.57
78343;BME280;67618;52.444;21.192;2023-03-20T21:52:41;100277.76;;;10.44;78.30
78343;BME280;67618;52.444;21.192;2023-03-20T21:57:43;100286.34;;;10.38;78.61
78343;BME280;67618;52.444;21.192;2023-03-20T22:02:45;100288.13;;;10.28;79.39
78343;BME280;67618;52.444;21.192;2023-03-20T22:07:47;100287.45;;;10.21;79.65
78343;BME280;67618;52.444;21.192;2023-03-20T22:12:48;100289.40;;;10.15;80.17
78343;BME280;67618;52.444;21.192;2023-03-20T22:17:50;100289.76;;;10.13;80.31
78343;BME280;67618;52.444;21.192;2023-03-20T22:22:52;100293.61;;;10.10;80.84
78343;BME280;67618;52.444;21.192;2023-03-20T22:27:54;100292.71;;;10.08;81.14
78343;BME280;67618;52.444;21.192;2023-03-20T22:32:55;100284.69;;;10.06;81.37
78343;BME280;67618;52.444;21.192;2023-03-20T22:37:57;100280.16;;;10.07;81.40
78343;BME280;67618;52.444;21.192;2023-03-20T22:42:58;100286.08;;;10.06;81.03
78343;BME280;67618;52.444;21.192;2023-03-20T22:48:00;100290.45;;;10.04;80.76
78343;BME280;67618;52.444;21.192;2023-03-20T22:53:01;100290.98;;;10.03;80.49
78343;BME280;67618;52.444;21.192;2023-03-20T22:58:02;100296.05;;;9.97;80.81
78343;BME280;67618;52.444;21.192;2023-03-20T23:03:05;100291.73;;;9.90;80.58
78343;BME280;67618;52.444;21.192;2023-03-20T23:08:07;100292.78;;;9.84;80.71
78343;BME280;67618;52.444;21.192;2023-03-20T23:13:09;100290.36;;;9.78;80.47
78343;BME280;67618;52.444;21.192;2023-03-20T23:18:11;100285.48;;;9.73;80.47
78343;BME280;67618;52.444;21.192;2023-03-20T23:23:12;100284.45;;;9.70;80.60
78343;BME280;67618;52.444;21.192;2023-03-20T23:28:14;100287.25;;;9.65;80.54
78343;BME280;67618;52.444;21.192;2023-03-20T23:33:16;100283.94;;;9.59;80.60
78343;BME280;67618;52.444;21.192;2023-03-20T23:38:17;100281.33;;;9.59;80.59
78343;BME280;67618;52.444;21.192;2023-03-20T23:43:18;100281.16;;;9.57;80.33
78343;BME280;67618;52.444;21.192;2023-03-20T23:48:20;100281.52;;;9.54;80.45
78343;BME280;67618;52.444;21.192;2023-03-20T23:53:22;100279.43;;;9.55;80.11
78343;BME280;67618;52.444;21.192;2023-03-20T23:58:25;100281.71;;;9.50;80.27
